createdAt,value
2018-05-29T00:00:06.904Z,0
2018-05-29T00:01:16.730Z,0
2018-05-29T00:02:26.547Z,0
2018-05-29T00:03:36.163Z,0
2018-05-29T00:04:46.270Z,0
2018-05-29T00:05:56.399Z,0
2018-05-29T00:07:06.490Z,0
2018-05-29T00:08:16.582Z,0
2018-05-29T00:09:26.698Z,0
2018-05-29T00:10:36.516Z,0
2018-05-29T00:11:46.597Z,0
2018-05-29T00:12:56.671Z,0
2018-05-29T00:14:06.759Z,0
2018-05-29T00:15:16.885Z,0
2018-05-29T00:16:26.452Z,0
2018-05-29T00:17:36.543Z,0
2018-05-29T00:18:46.628Z,0
2018-05-29T00:19:56.453Z,0
2018-05-29T00:21:06.550Z,0
2018-05-29T00:22:16.363Z,0
2018-05-29T00:23:26.443Z,0
2018-05-29T00:24:36.545Z,0
2018-05-29T00:25:46.635Z,0
2018-05-29T00:26:56.700Z,0
2018-05-29T00:28:06.810Z,0
2018-05-29T00:29:16.377Z,0
2018-05-29T00:30:26.219Z,0
2018-05-29T00:31:36.029Z,0
2018-05-29T00:32:46.105Z,0
2018-05-29T00:33:56.186Z,0
2018-05-29T00:35:05.996Z,0
2018-05-29T00:36:15.807Z,0
2018-05-29T00:37:25.895Z,0
2018-05-29T00:38:35.737Z,0
2018-05-29T00:39:45.827Z,0
2018-05-29T00:40:55.937Z,0
2018-05-29T00:42:05.747Z,0
2018-05-29T00:43:15.842Z,0
2018-05-29T00:44:25.932Z,0
2018-05-29T00:45:35.503Z,0
2018-05-29T00:46:45.589Z,0
2018-05-29T00:47:55.682Z,0
2018-05-29T00:49:05.762Z,0
2018-05-29T00:50:15.885Z,0
2018-05-29T00:51:25.705Z,0
2018-05-29T00:52:35.534Z,0
2018-05-29T00:53:45.603Z,0
2018-05-29T00:54:55.439Z,0
2018-05-29T00:56:05.605Z,0
2018-05-29T00:57:15.680Z,0
2018-05-29T00:58:25.488Z,0
2018-05-29T00:59:35.565Z,0
2018-05-29T01:00:45.657Z,0
2018-05-29T01:01:55.517Z,0
2018-05-29T01:03:05.325Z,0
2018-05-29T01:04:15.406Z,0
2018-05-29T01:05:25.511Z,0
2018-05-29T01:06:35.581Z,0
2018-05-29T01:07:45.681Z,0
2018-05-29T01:08:55.773Z,0
2018-05-29T01:10:05.583Z,0
2018-05-29T01:11:15.134Z,0
2018-05-29T01:12:24.943Z,0
2018-05-29T01:13:34.819Z,0
2018-05-29T01:14:44.652Z,0
2018-05-29T01:15:54.466Z,0
2018-05-29T01:17:04.290Z,0
2018-05-29T01:18:14.374Z,0
2018-05-29T01:19:24.445Z,0
2018-05-29T01:20:34.543Z,0
2018-05-29T01:21:44.634Z,0
2018-05-29T01:22:54.732Z,0
2018-05-29T01:24:04.808Z,0
2018-05-29T01:25:15.026Z,0
2018-05-29T01:26:25.109Z,0
2018-05-29T01:27:34.925Z,0
2018-05-29T01:28:44.741Z,0
2018-05-29T01:29:54.829Z,0
2018-05-29T01:31:04.122Z,0
2018-05-29T01:32:14.214Z,0
2018-05-29T01:33:24.306Z,0
2018-05-29T01:34:34.393Z,0
2018-05-29T01:35:43.950Z,0
2018-05-29T01:36:54.024Z,0
2018-05-29T01:38:04.105Z,0
2018-05-29T01:39:14.200Z,0
2018-05-29T01:40:24.568Z,0
2018-05-29T01:41:34.386Z,0
2018-05-29T01:42:44.548Z,0
2018-05-29T01:43:54.633Z,0
2018-05-29T01:45:04.741Z,0
2018-05-29T01:46:14.824Z,0
2018-05-29T01:47:24.647Z,0
2018-05-29T01:48:34.746Z,0
2018-05-29T01:49:44.823Z,0
2018-05-29T01:50:54.652Z,0
2018-05-29T01:52:04.730Z,0
2018-05-29T01:53:14.792Z,0
2018-05-29T01:54:24.889Z,0
2018-05-29T01:55:34.516Z,0
2018-05-29T01:56:44.069Z,0
2018-05-29T01:57:53.889Z,0
2018-05-29T01:59:03.985Z,0
2018-05-29T02:00:14.232Z,0
2018-05-29T02:01:24.310Z,0
2018-05-29T02:02:34.399Z,0
2018-05-29T02:03:44.227Z,0
2018-05-29T02:04:54.303Z,0
2018-05-29T02:06:03.863Z,0
2018-05-29T02:07:13.943Z,0
2018-05-29T02:08:24.020Z,0
2018-05-29T02:09:34.107Z,0
2018-05-29T02:10:44.193Z,0
2018-05-29T02:11:54.293Z,0
2018-05-29T02:13:04.368Z,0
2018-05-29T02:14:14.464Z,0
2018-05-29T02:15:24.019Z,0
2018-05-29T02:16:34.090Z,0
2018-05-29T02:17:43.648Z,0
2018-05-29T02:18:53.739Z,0
2018-05-29T02:20:03.814Z,0
2018-05-29T02:21:13.622Z,0
2018-05-29T02:22:23.704Z,0
2018-05-29T02:23:33.844Z,0
2018-05-29T02:24:43.940Z,0
2018-05-29T02:25:53.753Z,0
2018-05-29T02:27:03.844Z,0
2018-05-29T02:28:13.668Z,0
2018-05-29T02:29:23.794Z,0
2018-05-29T02:30:33.696Z,0
2018-05-29T02:31:43.794Z,0
2018-05-29T02:32:53.387Z,0
2018-05-29T02:34:03.217Z,0
2018-05-29T02:35:13.081Z,0
2018-05-29T02:36:23.181Z,0
2018-05-29T02:37:33.275Z,0
2018-05-29T02:38:43.376Z,0
2018-05-29T02:39:53.190Z,0
2018-05-29T02:41:03.292Z,0
2018-05-29T02:42:13.389Z,0
2018-05-29T02:43:23.541Z,0
2018-05-29T02:44:33.641Z,0
2018-05-29T02:45:43.736Z,0
2018-05-29T02:46:53.615Z,0
2018-05-29T02:48:03.727Z,0
2018-05-29T02:49:13.809Z,0
2018-05-29T02:50:23.907Z,0
2018-05-29T02:51:33.987Z,0
2018-05-29T02:52:44.266Z,0
2018-05-29T02:53:54.073Z,0
2018-05-29T02:55:04.145Z,0
2018-05-29T02:56:14.254Z,0
2018-05-29T02:57:24.333Z,0
2018-05-29T02:58:34.198Z,5
2018-05-29T02:59:44.019Z,5
2018-05-29T03:00:54.093Z,5
2018-05-29T03:02:04.171Z,5
2018-05-29T03:03:14.246Z,5
2018-05-29T03:35:00.719Z,35
2018-05-29T03:36:10.794Z,35
2018-05-29T03:37:20.864Z,40
2018-05-29T03:38:30.663Z,40
2018-05-29T03:39:40.742Z,40
2018-05-29T03:40:50.879Z,40
2018-05-29T03:42:00.965Z,40
2018-05-29T03:43:10.782Z,45
2018-05-29T03:44:20.856Z,45
2018-05-29T03:45:30.937Z,45
2018-05-29T03:46:41.060Z,50
2018-05-29T03:47:50.874Z,50
2018-05-29T03:49:00.690Z,55
2018-05-29T03:50:10.769Z,55
2018-05-29T03:51:20.917Z,55
2018-05-29T03:52:31.050Z,55
2018-05-29T03:53:41.116Z,60
2018-05-29T03:54:51.203Z,60
2018-05-29T03:56:01.279Z,65
2018-05-29T03:57:11.103Z,65
2018-05-29T03:58:21.212Z,65
2018-05-29T03:59:31.305Z,70
2018-05-29T04:00:41.390Z,70
2018-05-29T04:01:51.483Z,75
2018-05-29T04:03:01.314Z,75
2018-05-29T04:04:11.411Z,80
2018-05-29T04:05:21.242Z,80
2018-05-29T04:06:31.321Z,85
2018-05-29T04:07:41.406Z,85
2018-05-29T04:08:51.478Z,85
2018-05-29T04:10:01.462Z,90
2018-05-29T04:11:11.562Z,90
2018-05-29T04:12:21.647Z,95
2018-05-29T04:13:31.734Z,95
2018-05-29T04:14:41.812Z,95
2018-05-29T04:15:52.061Z,95
2018-05-29T04:17:02.377Z,95
2018-05-29T04:18:12.524Z,115
2018-05-29T04:19:22.339Z,185
2018-05-29T04:20:32.144Z,220
2018-05-29T04:21:42.250Z,230
2018-05-29T04:22:52.333Z,230
2018-05-29T04:24:01.898Z,225
2018-05-29T04:25:11.980Z,250
2018-05-29T04:26:22.049Z,245
2018-05-29T04:27:32.182Z,245
2018-05-29T04:28:42.266Z,255
2018-05-29T04:29:52.385Z,240
2018-05-29T04:31:02.486Z,245
2018-05-29T04:32:12.038Z,265
2018-05-29T04:33:22.130Z,265
2018-05-29T04:34:32.224Z,260
2018-05-29T04:35:42.057Z,270
2018-05-29T04:36:52.139Z,285
2018-05-29T04:38:02.222Z,275
2018-05-29T04:39:12.095Z,265
2018-05-29T04:40:21.907Z,270
2018-05-29T04:41:31.738Z,280
2018-05-29T04:42:41.817Z,300
2018-05-29T04:43:52.129Z,320
2018-05-29T04:45:01.951Z,320
2018-05-29T04:46:12.023Z,325
2018-05-29T04:47:22.131Z,340
2018-05-29T04:48:31.944Z,350
2018-05-29T04:49:42.140Z,350
2018-05-29T04:50:52.286Z,345
2018-05-29T04:52:02.375Z,345
2018-05-29T04:53:12.453Z,340
2018-05-29T04:54:22.597Z,350
2018-05-29T04:55:32.685Z,365
2018-05-29T04:56:43.019Z,345
2018-05-29T04:57:53.119Z,345
2018-05-29T04:59:03.214Z,345
2018-05-29T05:00:13.066Z,350
2018-05-29T05:01:23.138Z,365
2018-05-29T05:02:33.248Z,365
2018-05-29T05:03:43.110Z,350
2018-05-29T05:04:53.195Z,340
2018-05-29T05:06:03.281Z,350
2018-05-29T05:07:13.381Z,345
2018-05-29T05:08:23.462Z,335
2018-05-29T05:09:33.540Z,320
2018-05-29T05:10:43.633Z,320
2018-05-29T05:11:53.724Z,325
2018-05-29T05:13:03.538Z,325
2018-05-29T05:14:13.375Z,335
2018-05-29T05:15:23.461Z,325
2018-05-29T05:16:33.544Z,335
2018-05-29T05:17:43.632Z,335
2018-05-29T05:18:53.728Z,340
2018-05-29T05:20:03.862Z,350
2018-05-29T05:21:13.933Z,370
2018-05-29T05:22:24.022Z,380
2018-05-29T05:23:34.252Z,380
2018-05-29T05:24:44.348Z,380
2018-05-29T05:25:54.474Z,370
2018-05-29T05:27:04.556Z,365
2018-05-29T05:28:14.630Z,360
2018-05-29T05:29:24.478Z,355
2018-05-29T05:30:34.569Z,355
2018-05-29T05:31:44.664Z,365
2018-05-29T05:32:54.746Z,360
2018-05-29T05:34:04.561Z,365
2018-05-29T05:35:14.413Z,360
2018-05-29T05:36:24.533Z,340
2018-05-29T05:37:34.604Z,320
2018-05-29T05:38:44.684Z,315
2018-05-29T05:39:54.770Z,315
2018-05-29T05:41:04.616Z,320
2018-05-29T05:42:14.713Z,320
2018-05-29T05:43:24.543Z,320
2018-05-29T05:44:34.639Z,320
2018-05-29T05:45:44.211Z,315
2018-05-29T05:46:54.040Z,280
2018-05-29T05:48:03.871Z,325
2018-05-29T05:49:13.960Z,340
2018-05-29T05:50:24.083Z,345
2018-05-29T05:51:34.183Z,335
2018-05-29T05:52:44.042Z,335
2018-05-29T05:53:54.148Z,320
2018-05-29T05:55:03.709Z,300
2018-05-29T05:56:13.798Z,320
2018-05-29T05:57:23.678Z,325
2018-05-29T05:58:34.055Z,325
2018-05-29T05:59:43.792Z,310
2018-05-29T06:00:53.624Z,305
2018-05-29T06:02:03.727Z,310
2018-05-29T06:03:13.875Z,310
2018-05-29T06:04:23.964Z,305
2018-05-29T06:05:34.046Z,300
2018-05-29T06:06:44.131Z,290
2018-05-29T06:07:54.230Z,310
2018-05-29T06:09:04.044Z,325
2018-05-29T06:10:13.885Z,330
2018-05-29T06:11:23.978Z,330
2018-05-29T06:12:34.072Z,330
2018-05-29T06:13:43.878Z,345
2018-05-29T06:14:53.981Z,290
2018-05-29T06:16:03.864Z,245
2018-05-29T06:17:13.953Z,240
2018-05-29T06:18:23.785Z,245
2018-05-29T06:19:33.624Z,260
2018-05-29T06:20:43.712Z,295
2018-05-29T06:21:53.886Z,320
2018-05-29T06:23:03.972Z,325
2018-05-29T06:24:14.069Z,325
2018-05-29T06:25:24.171Z,315
2018-05-29T06:26:34.278Z,305
2018-05-29T06:27:44.359Z,300
2018-05-29T06:28:54.191Z,290
2018-05-29T06:30:04.049Z,280
2018-05-29T06:31:14.171Z,295
2018-05-29T06:32:24.272Z,280
2018-05-29T06:33:34.362Z,270
2018-05-29T06:34:44.450Z,275
2018-05-29T06:35:54.268Z,285
2018-05-29T06:37:04.091Z,290
2018-05-29T06:38:14.320Z,280
2018-05-29T06:39:24.410Z,275
2018-05-29T06:40:34.564Z,270
2018-05-29T06:41:44.383Z,270
2018-05-29T06:42:54.478Z,265
2018-05-29T06:44:04.309Z,260
2018-05-29T06:45:14.991Z,260
2018-05-29T06:46:25.087Z,260
2018-05-29T06:47:34.914Z,260
2018-05-29T06:48:44.765Z,255
2018-05-29T06:49:54.883Z,250
2018-05-29T06:51:04.985Z,250
2018-05-29T06:52:15.076Z,245
2018-05-29T06:53:24.898Z,250
2018-05-29T06:54:34.726Z,245
2018-05-29T06:55:44.863Z,250
2018-05-29T06:56:54.953Z,240
2018-05-29T06:58:05.039Z,235
2018-05-29T06:59:14.879Z,235
2018-05-29T07:00:24.709Z,235
2018-05-29T07:01:34.845Z,235
2018-05-29T07:02:44.936Z,230
2018-05-29T07:03:55.102Z,230
2018-05-29T07:05:05.223Z,220
2018-05-29T07:06:15.321Z,220
2018-05-29T07:07:25.461Z,220
2018-05-29T07:08:35.295Z,220
2018-05-29T07:09:45.367Z,220
2018-05-29T07:10:55.481Z,220
2018-05-29T07:12:05.313Z,220
2018-05-29T07:13:14.886Z,220
2018-05-29T07:14:24.963Z,220
2018-05-29T07:15:34.554Z,215
2018-05-29T07:16:44.631Z,215
2018-05-29T07:17:54.459Z,215
2018-05-29T07:19:04.327Z,215
2018-05-29T07:20:14.427Z,215
2018-05-29T07:21:24.500Z,215
2018-05-29T07:22:34.325Z,210
2018-05-29T07:23:44.166Z,210
2018-05-29T07:24:54.425Z,210
2018-05-29T07:26:04.515Z,210
2018-05-29T07:27:14.366Z,210
2018-05-29T07:28:24.454Z,210
2018-05-29T07:29:34.290Z,210
2018-05-29T07:30:44.469Z,205
2018-05-29T07:31:54.569Z,205
2018-05-29T07:33:04.656Z,210
2018-05-29T07:34:14.477Z,205
2018-05-29T07:35:24.579Z,210
2018-05-29T07:36:34.675Z,220
2018-05-29T07:37:44.756Z,205
2018-05-29T07:38:54.965Z,215
2018-05-29T07:40:04.806Z,210
2018-05-29T07:41:14.908Z,210
2018-05-29T07:42:24.474Z,210
2018-05-29T07:43:34.551Z,210
2018-05-29T07:44:44.363Z,210
2018-05-29T07:45:54.430Z,210
2018-05-29T07:47:04.274Z,210
2018-05-29T07:48:14.348Z,210
2018-05-29T07:49:24.432Z,210
2018-05-29T07:50:34.513Z,210
2018-05-29T07:51:44.329Z,215
2018-05-29T07:52:54.409Z,210
2018-05-29T07:54:04.484Z,210
2018-05-29T07:55:14.566Z,210
2018-05-29T07:56:24.640Z,210
2018-05-29T07:57:34.462Z,210
2018-05-29T07:58:44.557Z,210
2018-05-29T07:59:54.642Z,210
2018-05-29T08:01:04.470Z,210
2018-05-29T08:02:14.554Z,210
2018-05-29T08:03:24.654Z,210
2018-05-29T08:04:34.218Z,210
2018-05-29T08:05:44.360Z,210
2018-05-29T08:06:54.463Z,210
2018-05-29T08:08:04.284Z,210
2018-05-29T08:09:14.388Z,210
2018-05-29T08:10:23.949Z,210
2018-05-29T08:11:33.764Z,210
2018-05-29T08:12:43.341Z,210
2018-05-29T08:13:52.919Z,215
2018-05-29T08:15:03.000Z,215
2018-05-29T08:16:12.815Z,215
2018-05-29T08:17:22.903Z,215
2018-05-29T08:18:33.082Z,220
2018-05-29T08:19:43.179Z,220
2018-05-29T08:20:53.261Z,220
2018-05-29T08:22:03.087Z,220
2018-05-29T08:23:13.013Z,220
2018-05-29T08:24:22.846Z,220
2018-05-29T08:25:32.945Z,220
2018-05-29T08:26:42.765Z,220
2018-05-29T08:27:52.886Z,220
2018-05-29T08:29:03.034Z,220
2018-05-29T08:30:12.855Z,225
2018-05-29T08:31:22.948Z,225
2018-05-29T08:32:33.064Z,225
2018-05-29T08:33:43.157Z,230
2018-05-29T08:34:53.284Z,230
2018-05-29T08:36:03.105Z,230
2018-05-29T08:37:13.227Z,230
2018-05-29T08:38:23.319Z,230
2018-05-29T08:39:33.473Z,230
2018-05-29T08:40:43.580Z,225
2018-05-29T08:41:53.649Z,225
2018-05-29T08:43:03.756Z,225
2018-05-29T08:44:13.567Z,225
2018-05-29T08:45:23.677Z,225
2018-05-29T08:46:33.675Z,225
2018-05-29T08:47:42.979Z,225
2018-05-29T08:48:53.064Z,220
2018-05-29T08:50:02.876Z,220
2018-05-29T08:51:12.958Z,220
2018-05-29T08:52:22.824Z,220
2018-05-29T08:53:32.947Z,220
2018-05-29T08:54:42.789Z,220
2018-05-29T08:55:52.884Z,220
2018-05-29T08:57:03.091Z,225
2018-05-29T08:58:12.684Z,215
2018-05-29T08:59:22.773Z,215
2018-05-29T09:00:32.857Z,220
2018-05-29T09:01:42.951Z,215
2018-05-29T09:02:53.056Z,215
2018-05-29T09:04:03.380Z,215
2018-05-29T09:05:13.528Z,215
2018-05-29T09:06:23.624Z,215
2018-05-29T09:07:33.474Z,215
2018-05-29T09:08:43.578Z,215
2018-05-29T09:09:53.686Z,215
2018-05-29T09:11:03.507Z,215
2018-05-29T09:12:13.590Z,215
2018-05-29T09:13:23.426Z,215
2018-05-29T09:14:32.988Z,215
2018-05-29T09:15:43.156Z,210
2018-05-29T09:16:53.244Z,215
2018-05-29T09:18:03.329Z,220
2018-05-29T09:19:13.156Z,215
2018-05-29T09:20:23.253Z,215
2018-05-29T09:21:33.092Z,220
2018-05-29T09:22:42.944Z,215
2018-05-29T09:23:53.059Z,215
2018-05-29T09:25:02.907Z,220
2018-05-29T09:26:13.266Z,215
2018-05-29T09:27:23.401Z,215
2018-05-29T09:28:33.529Z,215
2018-05-29T09:29:43.737Z,220
2018-05-29T09:30:53.642Z,215
2018-05-29T09:32:03.748Z,215
2018-05-29T09:33:13.911Z,215
2018-05-29T09:34:24.009Z,215
2018-05-29T09:35:34.411Z,215
2018-05-29T09:36:44.308Z,220
2018-05-29T09:37:54.412Z,220
2018-05-29T09:39:04.244Z,215
2018-05-29T09:40:13.889Z,220
2018-05-29T09:41:23.652Z,220
2018-05-29T09:42:33.759Z,220
2018-05-29T09:43:43.588Z,220
2018-05-29T09:44:53.882Z,220
2018-05-29T09:46:04.323Z,215
2018-05-29T09:47:14.405Z,215
2018-05-29T09:48:24.819Z,215
2018-05-29T09:49:34.917Z,215
2018-05-29T09:50:45.023Z,215
2018-05-29T09:51:55.127Z,220
2018-05-29T09:53:05.481Z,215
2018-05-29T09:54:15.567Z,220
2018-05-29T09:55:25.386Z,220
2018-05-29T09:56:35.481Z,220
2018-05-29T09:57:45.593Z,220
2018-05-29T09:58:55.687Z,220
2018-05-29T10:00:05.769Z,220
2018-05-29T10:01:18.407Z,220
2018-05-29T10:02:28.130Z,220
2018-05-29T10:03:38.575Z,220
2018-05-29T10:04:48.763Z,220
2018-05-29T10:05:58.861Z,220
2018-05-29T10:07:09.502Z,220
2018-05-29T10:08:19.750Z,220
2018-05-29T10:09:29.988Z,220
2018-05-29T10:10:40.188Z,220
2018-05-29T10:11:50.363Z,220
2018-05-29T10:13:00.424Z,220
2018-05-29T10:14:10.749Z,220
2018-05-29T10:15:20.919Z,225
2018-05-29T10:16:31.050Z,230
2018-05-29T10:17:41.190Z,230
2018-05-29T10:18:51.508Z,225
2018-05-29T10:20:01.786Z,225
2018-05-29T10:21:11.908Z,225
2018-05-29T10:22:22.063Z,225
2018-05-29T10:23:32.556Z,230
2018-05-29T10:24:42.623Z,230
2018-05-29T10:25:52.918Z,230
2018-05-29T10:27:03.242Z,230
2018-05-29T10:28:13.633Z,235
2018-05-29T10:29:24.063Z,235
2018-05-29T10:30:34.583Z,230
2018-05-29T10:31:44.774Z,235
2018-05-29T10:32:54.977Z,235
2018-05-29T10:34:05.179Z,230
2018-05-29T10:35:15.561Z,240
2018-05-29T10:36:25.734Z,235
2018-05-29T10:37:35.870Z,240
2018-05-29T10:38:46.018Z,240
2018-05-29T10:39:56.160Z,245
2018-05-29T10:41:06.088Z,215
2018-05-29T10:42:16.194Z,250
2018-05-29T10:43:26.284Z,175
2018-05-29T10:44:36.202Z,240
2018-05-29T10:45:46.301Z,255
2018-05-29T10:46:56.137Z,270
2018-05-29T10:48:06.236Z,270
2018-05-29T10:49:16.062Z,260
2018-05-29T10:50:26.205Z,250
2018-05-29T10:51:36.310Z,250
2018-05-29T10:52:46.525Z,250
2018-05-29T10:53:56.405Z,260
2018-05-29T10:55:06.513Z,265
2018-05-29T10:56:16.366Z,265
2018-05-29T10:57:26.482Z,265
2018-05-29T10:58:36.580Z,260
2018-05-29T10:59:46.684Z,250
2018-05-29T11:00:56.795Z,265
2018-05-29T11:02:06.628Z,270
2018-05-29T11:03:16.726Z,250
2018-05-29T11:04:26.836Z,285
2018-05-29T11:05:36.935Z,280
2018-05-29T11:06:47.083Z,280
2018-05-29T11:07:56.739Z,295
2018-05-29T11:09:06.858Z,300
2018-05-29T11:10:16.962Z,300
2018-05-29T11:11:27.065Z,230
2018-05-29T11:12:37.170Z,295
2018-05-29T11:13:47.277Z,295
2018-05-29T11:14:57.391Z,300
2018-05-29T11:16:07.233Z,320
2018-05-29T11:17:17.072Z,315
2018-05-29T11:18:27.162Z,310
2018-05-29T11:19:37.243Z,300
2018-05-29T11:20:47.087Z,290
2018-05-29T11:21:57.225Z,265
2018-05-29T11:23:07.308Z,310
2018-05-29T11:24:16.868Z,285
2018-05-29T11:25:26.969Z,325
2018-05-29T11:26:37.066Z,330
2018-05-29T11:27:47.176Z,340
2018-05-29T11:28:56.754Z,350
2018-05-29T11:30:06.588Z,260
2018-05-29T11:31:16.613Z,245
2018-05-29T11:32:26.749Z,305
2018-05-29T11:33:36.865Z,335
2018-05-29T11:34:46.703Z,335
2018-05-29T11:35:56.806Z,240
2018-05-29T11:37:06.923Z,330
2018-05-29T11:38:17.023Z,240
2018-05-29T11:39:26.870Z,245
2018-05-29T11:40:36.982Z,350
2018-05-29T11:41:47.085Z,365
2018-05-29T11:42:57.228Z,285
2018-05-29T11:44:07.340Z,290
2018-05-29T11:45:17.453Z,385
2018-05-29T11:46:27.283Z,385
2018-05-29T11:47:38.911Z,335
2018-05-29T11:48:50.397Z,325
2018-05-29T11:50:01.786Z,360
2018-05-29T11:51:13.094Z,345
2018-05-29T11:52:23.992Z,245
2018-05-29T11:53:36.869Z,255
2018-05-29T11:54:47.633Z,310
2018-05-29T11:55:58.851Z,330
2018-05-29T11:57:09.588Z,330
2018-05-29T11:58:19.544Z,245
2018-05-29T11:59:29.659Z,240
2018-05-29T12:00:40.102Z,230
2018-05-29T12:01:50.499Z,230
2018-05-29T12:03:00.876Z,260
2018-05-29T12:04:11.012Z,310
2018-05-29T12:05:21.129Z,255
2018-05-29T12:06:31.274Z,340
2018-05-29T12:07:41.285Z,345
2018-05-29T12:08:51.464Z,335
2018-05-29T12:10:01.574Z,310
2018-05-29T12:11:11.693Z,295
2018-05-29T12:12:21.535Z,290
2018-05-29T12:13:31.641Z,305
2018-05-29T12:14:41.748Z,220
2018-05-29T12:15:51.577Z,200
2018-05-29T12:17:01.559Z,180
2018-05-29T12:18:11.728Z,160
2018-05-29T12:19:21.580Z,145
2018-05-29T12:20:31.665Z,130
2018-05-29T12:21:41.542Z,120
2018-05-29T12:22:51.637Z,115
2018-05-29T12:24:01.783Z,110
2018-05-29T12:25:11.872Z,105
2018-05-29T12:26:21.728Z,105
2018-05-29T12:27:31.846Z,100
2018-05-29T12:28:41.953Z,100
2018-05-29T12:29:52.106Z,100
2018-05-29T12:31:02.211Z,100
2018-05-29T12:32:12.055Z,105
2018-05-29T12:33:21.902Z,110
2018-05-29T12:34:32.203Z,120
2018-05-29T12:35:42.351Z,135
2018-05-29T12:36:52.475Z,145
2018-05-29T12:38:05.002Z,150
2018-05-29T12:39:15.303Z,140
2018-05-29T12:40:25.597Z,145
2018-05-29T12:41:35.706Z,150
2018-05-29T12:42:45.802Z,155
2018-05-29T12:43:55.937Z,150
2018-05-29T12:45:06.062Z,155
2018-05-29T12:46:16.213Z,145
2018-05-29T12:47:26.374Z,140
2018-05-29T12:48:36.213Z,145
2018-05-29T12:49:46.317Z,145
2018-05-29T12:50:56.423Z,145
2018-05-29T12:52:06.530Z,150
2018-05-29T12:53:16.696Z,160
2018-05-29T12:54:26.806Z,175
2018-05-29T12:55:36.894Z,195
2018-05-29T13:04:29.345Z,195
2018-05-29T13:05:39.488Z,185
2018-05-29T13:06:49.581Z,190
2018-05-29T13:07:59.405Z,260
2018-05-29T13:09:09.242Z,285
2018-05-29T13:10:19.396Z,220
2018-05-29T13:11:29.631Z,235
2018-05-29T13:12:39.726Z,235
2018-05-29T13:13:49.818Z,305
2018-05-29T13:14:59.934Z,225
2018-05-29T13:16:09.827Z,225
2018-05-29T13:17:19.931Z,225
2018-05-29T13:18:30.048Z,295
2018-05-29T13:19:40.156Z,315
2018-05-29T13:20:50.274Z,330
2018-05-29T13:22:00.462Z,330
2018-05-29T13:23:10.630Z,330
2018-05-29T13:24:20.477Z,245
2018-05-29T13:25:30.594Z,240
2018-05-29T13:26:40.422Z,240
2018-05-29T13:27:50.820Z,300
2018-05-29T13:29:00.991Z,310
2018-05-29T13:30:11.140Z,235
2018-05-29T13:31:21.268Z,305
2018-05-29T13:32:31.197Z,265
2018-05-29T13:33:41.333Z,305
2018-05-29T13:34:51.436Z,305
2018-05-29T13:36:01.567Z,310
2018-05-29T13:37:11.749Z,315
2018-05-29T13:38:21.880Z,315
2018-05-29T13:39:32.255Z,315
2018-05-29T13:40:42.387Z,310
2018-05-29T13:41:52.510Z,265
2018-05-29T13:43:02.344Z,230
2018-05-29T13:44:12.437Z,205
2018-05-29T13:45:22.610Z,265
2018-05-29T13:46:32.718Z,195
2018-05-29T13:47:42.829Z,195
2018-05-29T13:48:52.923Z,190
2018-05-29T13:50:03.039Z,195
2018-05-29T13:51:13.136Z,185
2018-05-29T13:52:23.257Z,225
2018-05-29T13:53:32.851Z,170
2018-05-29T13:54:42.953Z,170
2018-05-29T13:55:52.774Z,175
2018-05-29T13:57:02.944Z,175
2018-05-29T13:58:13.040Z,165
2018-05-29T13:59:23.280Z,150
2018-05-29T14:00:33.429Z,145
2018-05-29T14:01:43.461Z,205
2018-05-29T14:02:53.630Z,215
2018-05-29T14:04:03.718Z,215
2018-05-29T14:05:13.821Z,225
2018-05-29T14:06:23.687Z,230
2018-05-29T14:07:33.790Z,240
2018-05-29T14:08:43.618Z,240
2018-05-29T14:09:53.698Z,240
2018-05-29T14:11:03.824Z,240
2018-05-29T14:12:13.923Z,235
2018-05-29T14:13:23.773Z,230
2018-05-29T14:14:33.881Z,225
2018-05-29T14:15:43.439Z,225
2018-05-29T14:16:53.522Z,225
2018-05-29T14:18:03.602Z,225
2018-05-29T14:19:13.702Z,220
2018-05-29T14:20:23.592Z,225
2018-05-29T14:21:33.713Z,220
2018-05-29T14:22:43.810Z,215
2018-05-29T14:23:53.924Z,210
2018-05-29T14:25:04.043Z,210
2018-05-29T14:26:13.938Z,210
2018-05-29T14:27:24.053Z,195
2018-05-29T14:28:34.153Z,195
2018-05-29T14:29:44.287Z,140
2018-05-29T14:30:54.389Z,190
2018-05-29T14:32:04.522Z,190
2018-05-29T14:33:14.640Z,130
2018-05-29T14:34:24.479Z,130
2018-05-29T14:35:34.318Z,160
2018-05-29T14:36:44.549Z,195
2018-05-29T14:37:54.860Z,200
2018-05-29T14:39:04.695Z,205
2018-05-29T14:40:14.818Z,205
2018-05-29T14:41:24.936Z,210
2018-05-29T14:42:34.517Z,160
2018-05-29T14:43:44.768Z,205
2018-05-29T14:44:54.937Z,200
2018-05-29T14:46:05.168Z,170
2018-05-29T14:47:15.023Z,150
2018-05-29T14:48:25.150Z,195
2018-05-29T14:49:35.148Z,185
2018-05-29T14:50:45.246Z,135
2018-05-29T14:51:55.098Z,135
2018-05-29T14:53:05.200Z,175
2018-05-29T14:54:15.022Z,130
2018-05-29T14:55:24.847Z,125
2018-05-29T14:56:34.921Z,125
2018-05-29T14:57:44.750Z,120
2018-05-29T14:58:55.176Z,135
2018-05-29T15:00:05.010Z,125
2018-05-29T15:01:15.166Z,135
2018-05-29T15:02:25.262Z,135
2018-05-29T15:03:35.118Z,180
2018-05-29T15:04:44.958Z,175
2018-05-29T15:05:54.530Z,180
2018-05-29T15:07:04.398Z,175
2018-05-29T15:08:14.513Z,185
2018-05-29T15:09:24.620Z,185
2018-05-29T15:10:34.962Z,185
2018-05-29T15:11:45.071Z,185
2018-05-29T15:12:55.230Z,165
2018-05-29T15:14:05.321Z,140
2018-05-29T15:15:15.413Z,160
2018-05-29T15:16:25.499Z,170
2018-05-29T15:17:35.660Z,175
2018-05-29T15:18:45.988Z,170
2018-05-29T15:19:56.091Z,175
2018-05-29T15:21:06.206Z,175
2018-05-29T15:22:16.324Z,175
2018-05-29T15:23:26.444Z,175
2018-05-29T15:24:36.581Z,175
2018-05-29T15:25:46.824Z,175
2018-05-29T15:26:56.986Z,165
2018-05-29T15:28:07.110Z,165
2018-05-29T15:29:17.264Z,130
2018-05-29T15:30:27.396Z,150
2018-05-29T15:31:37.220Z,120
2018-05-29T15:32:47.056Z,115
2018-05-29T15:33:57.149Z,115
2018-05-29T15:35:07.306Z,110
2018-05-29T15:36:17.424Z,110
2018-05-29T15:37:26.715Z,135
2018-05-29T15:38:36.846Z,145
2018-05-29T15:39:46.943Z,145
2018-05-29T15:40:57.276Z,140
2018-05-29T15:42:07.386Z,125
2018-05-29T15:43:17.495Z,130
2018-05-29T15:44:27.650Z,140
2018-05-29T15:45:37.758Z,140
2018-05-29T15:46:47.909Z,130
2018-05-29T15:47:57.761Z,130
2018-05-29T15:49:07.905Z,140
2018-05-29T15:50:18.044Z,135
2018-05-29T15:51:28.157Z,135
2018-05-29T15:52:38.079Z,135
2018-05-29T15:53:48.343Z,140
2018-05-29T15:54:58.484Z,150
2018-05-29T15:56:08.592Z,145
2018-05-29T15:57:18.707Z,135
2018-05-29T15:58:28.821Z,120
2018-05-29T15:59:38.968Z,120
2018-05-29T16:00:49.060Z,120
2018-05-29T16:01:59.152Z,115
2018-05-29T16:03:09.279Z,115
2018-05-29T16:04:19.415Z,120
2018-05-29T16:05:29.536Z,130
2018-05-29T16:06:39.396Z,140
2018-05-29T16:07:49.530Z,135
2018-05-29T16:08:59.634Z,140
2018-05-29T16:10:09.780Z,140
2018-05-29T16:11:19.791Z,135
2018-05-29T16:12:29.953Z,130
2018-05-29T16:13:40.069Z,130
2018-05-29T16:14:50.171Z,130
2018-05-29T16:16:00.306Z,125
2018-05-29T16:17:10.408Z,125
2018-05-29T16:18:20.561Z,115
2018-05-29T16:19:30.652Z,110
2018-05-29T16:20:40.776Z,115
2018-05-29T16:21:50.947Z,110
2018-05-29T16:23:01.073Z,110
2018-05-29T16:24:11.187Z,110
2018-05-29T16:25:21.310Z,100
2018-05-29T16:26:31.258Z,100
2018-05-29T16:27:41.675Z,90
2018-05-29T16:28:51.847Z,80
2018-05-29T16:30:02.004Z,75
2018-05-29T16:31:12.151Z,75
2018-05-29T16:32:22.241Z,70
2018-05-29T16:33:32.356Z,70
2018-05-29T16:34:42.698Z,70
2018-05-29T16:35:52.573Z,65
2018-05-29T16:37:02.704Z,65
2018-05-29T16:38:12.805Z,65
2018-05-29T16:39:22.971Z,65
2018-05-29T16:40:33.427Z,65
2018-05-29T16:41:43.334Z,65
2018-05-29T16:42:53.558Z,70
2018-05-29T16:44:03.646Z,70
2018-05-29T16:45:13.813Z,70
2018-05-29T16:46:23.962Z,70
2018-05-29T16:47:33.825Z,70
2018-05-29T16:48:43.933Z,70
2018-05-29T16:49:54.089Z,70
2018-05-29T16:51:04.215Z,70
2018-05-29T16:52:14.063Z,70
2018-05-29T16:53:24.311Z,70
2018-05-29T16:54:34.497Z,75
2018-05-29T16:55:44.612Z,75
2018-05-29T16:56:54.753Z,75
2018-05-29T16:58:04.852Z,75